Terminal Aerodrome Forecast
Issued by NWS

Home | Current Version | Previous Version | Text Only | Print | Product List | Glossary On
Versions: 1 2 3 4 5 6 7 8 9 10 11 12 13 14
000
FTUS44 KLZK 301700
TAFHOT
TAF
KHOT 301721Z 3018/3118 18005KT P6SM VCSH SCT025 OVC050
      TEMPO 3019/3023 -RA
     FM302300 VRB05KT P6SM -RA SCT020 BKN035
      TEMPO 3023/3103 5SM -SHRA BR BKN025
     FM310300 VRB05KT 5SM -SHRA BR BKN025 OVC040
      TEMPO 3107/3111 1SM SHRA BR OVC012
     FM311300 13007KT P6SM VCSH SCT025 BKN035 PROB30 3113/3118 5SM
      -SHRA BR BKN025=

USA.gov is the U.S. government's official web portal to all federal, state and local government web resources and services.